Time;durP1;ratioP1;P1;durP2;ratioP2;P2;SDS_P1;SDS_P2;PMS_P1;PMS_P2;Temp;Humidity;BMP_temperature;BMP_pressure;BME280_temperature;BME280_humidity;BME280_pressure;Samples;Min_cycle;Max_cycle;Signal;HPM_P1;HPM_P2
2023/05/05 00:01:31;;;;;;;6.82;4.40;;;;;;;16.21;54.98;101231.06;4987116;28;20622;-71
2023/05/05 00:03:59;;;;;;;6.18;4.28;;;;;;;16.22;55.49;101240.75;4987369;28;20187;-71
2023/05/05 00:06:30;;;;;;;6.38;3.95;;;;;;;16.23;55.82;101235.34;4986972;28;20298;-71
2023/05/05 00:08:57;;;;;;;6.05;4.00;;;;;;;16.24;55.43;101231.75;4986671;28;20529;-71
2023/05/05 00:11:24;;;;;;;8.90;4.25;;;;;;;16.25;55.38;101237.94;4986411;28;20038;-71
2023/05/05 00:13:51;;;;;;;6.55;4.05;;;;;;;16.27;55.09;101242.28;4987341;28;20047;-71
2023/05/05 00:16:18;;;;;;;6.97;4.78;;;;;;;16.23;55.41;101232.69;4985675;28;20039;-71
2023/05/05 00:18:46;;;;;;;10.13;4.78;;;;;;;16.22;55.59;101238.09;4985578;28;20039;-71
2023/05/05 00:21:14;;;;;;;9.25;4.50;;;;;;;16.19;56.09;101244.41;4985965;28;20043;-71
2023/05/05 00:23:41;;;;;;;7.05;4.80;;;;;;;16.13;55.92;101242.91;4985076;28;20512;-72
2023/05/05 00:26:08;;;;;;;8.20;5.15;;;;;;;16.12;56.36;101235.88;4986165;28;20456;-71
2023/05/05 00:28:36;;;;;;;10.20;5.78;;;;;;;16.14;56.90;101234.00;4982658;28;20067;-71
2023/05/05 00:31:03;;;;;;;9.73;6.28;;;;;;;16.20;57.29;101238.16;4970505;28;20109;-72
2023/05/05 00:33:31;;;;;;;8.85;6.07;;;;;;;16.26;57.38;101235.22;4989348;28;20035;-72
2023/05/05 00:35:58;;;;;;;10.18;6.45;;;;;;;16.34;58.13;101240.16;4988735;28;20035;-72
2023/05/05 00:38:25;;;;;;;14.48;6.32;;;;;;;16.38;58.14;101239.06;4990721;28;20074;-72
2023/05/05 00:40:52;;;;;;;13.00;6.55;;;;;;;16.43;58.16;101238.84;4972888;28;20074;-72
2023/05/05 00:43:19;;;;;;;8.70;6.60;;;;;;;16.46;58.95;101226.25;4990214;28;20039;-72
2023/05/05 00:46:08;;;;;;;11.25;6.97;;;;;;;16.46;59.12;101228.06;4989310;28;20038;-72
2023/05/05 00:48:35;;;;;;;11.30;7.15;;;;;;;16.46;59.19;101231.59;4990162;28;20047;-72
2023/05/05 00:51:07;;;;;;;11.10;7.47;;;;;;;16.47;59.20;101248.44;4988566;28;20886;-72
2023/05/05 00:53:35;;;;;;;10.05;6.85;;;;;;;16.43;59.37;101242.34;4990216;28;20047;-72
2023/05/05 00:56:02;;;;;;;11.50;7.60;;;;;;;16.42;59.67;101238.00;4989349;28;20043;-72
2023/05/05 00:58:29;;;;;;;11.82;7.25;;;;;;;16.40;59.39;101245.19;4988350;28;20043;-72
2023/05/05 01:00:56;;;;;;;15.07;8.13;;;;;;;16.39;59.95;101242.59;4989944;28;20628;-72
2023/05/05 01:03:23;;;;;;;12.70;7.97;;;;;;;16.36;59.88;101251.59;4990324;28;20043;-72
2023/05/05 01:06:05;;;;;;;12.10;7.70;;;;;;;16.36;60.43;101256.06;4988463;28;20511;-72
2023/05/05 01:08:54;;;;;;;11.63;8.02;;;;;;;16.39;61.30;101247.91;4989378;28;20379;-71
2023/05/05 01:11:33;;;;;;;11.07;8.50;;;;;;;16.43;61.72;101252.16;4987173;28;20039;-72
2023/05/05 01:14:33;;;;;;;13.40;8.75;;;;;;;16.44;62.25;101262.72;4989676;28;20043;-72
2023/05/05 01:17:14;;;;;;;10.35;8.38;;;;;;;16.48;62.88;101262.56;4988728;28;20670;-72
2023/05/05 01:20:21;;;;;;;11.52;8.52;;;;;;;16.48;62.95;101265.25;4989707;28;20050;-72
2023/05/05 01:23:00;;;;;;;13.48;8.77;;;;;;;16.45;63.52;101267.09;4989910;28;20540;-72
2023/05/05 01:25:40;;;;;;;12.88;9.75;;;;;;;16.46;64.09;101267.97;4987882;28;20057;-71
2023/05/05 01:28:26;;;;;;;14.27;10.23;;;;;;;16.47;64.78;101269.72;4989244;28;20113;-72
2023/05/05 01:31:16;;;;;;;15.15;10.20;;;;;;;16.46;65.56;101268.84;4989592;28;20043;-72
2023/05/05 01:33:51;;;;;;;15.13;9.07;;;;;;;16.46;66.14;101273.31;4989299;28;20471;-72
2023/05/05 01:36:31;;;;;;;15.25;10.25;;;;;;;16.44;66.75;101275.16;4989564;28;20043;-72
2023/05/05 01:39:03;;;;;;;14.50;10.60;;;;;;;16.40;66.23;101282.44;4987912;28;20039;-72
2023/05/05 01:42:01;;;;;;;14.45;10.27;;;;;;;16.40;67.04;101282.44;4988229;28;20039;-72
2023/05/05 01:44:31;;;;;;;14.27;10.18;;;;;;;16.36;66.50;101286.19;4989367;28;20059;-71
2023/05/05 01:47:02;;;;;;;15.52;10.68;;;;;;;16.34;67.52;101281.88;4990035;28;20118;-72
2023/05/05 01:49:32;;;;;;;15.40;10.52;;;;;;;16.34;68.06;101287.19;4989452;28;20090;-72
2023/05/05 01:52:02;;;;;;;12.93;9.90;;;;;;;16.29;67.90;101285.59;4988365;28;20058;-72
2023/05/05 01:54:33;;;;;;;14.95;10.50;;;;;;;16.29;67.84;101290.06;4987974;28;20074;-72
2023/05/05 01:57:05;;;;;;;14.55;11.18;;;;;;;16.28;67.87;101294.50;4984079;28;20130;-72
2023/05/05 01:59:34;;;;;;;14.57;11.20;;;;;;;16.27;67.82;101291.94;4967847;28;20039;-72
2023/05/05 02:02:02;;;;;;;16.90;11.07;;;;;;;16.26;68.63;101295.53;4989146;28;20542;-72
2023/05/05 02:04:34;;;;;;;16.05;10.57;;;;;;;16.21;68.78;101294.91;4984045;28;20044;-72
2023/05/05 02:07:03;;;;;;;18.27;11.48;;;;;;;16.13;69.05;101292.59;4979830;28;20510;-72
2023/05/05 02:09:32;;;;;;;13.93;10.88;;;;;;;16.07;69.71;101296.38;4972771;28;20797;-72
2023/05/05 02:12:02;;;;;;;18.02;11.13;;;;;;;16.00;69.78;101294.97;4968090;28;20091;-72
2023/05/05 02:14:31;;;;;;;14.60;11.38;;;;;;;15.91;69.26;101284.75;4969456;28;20043;-72
2023/05/05 02:17:00;;;;;;;14.88;11.75;;;;;;;15.83;69.37;101282.41;4952210;28;20043;-72
2023/05/05 02:19:40;;;;;;;13.95;10.85;;;;;;;15.75;69.75;101285.38;4969151;28;20053;-72
2023/05/05 02:22:07;;;;;;;14.18;10.75;;;;;;;15.66;69.10;101276.06;4972437;28;20117;-72
2023/05/05 02:24:35;;;;;;;15.18;11.50;;;;;;;15.60;68.81;101284.28;4980242;28;20504;-72
2023/05/05 02:27:06;;;;;;;15.85;10.50;;;;;;;15.54;69.17;101276.59;4986291;28;20039;-72
2023/05/05 02:29:50;;;;;;;15.18;10.82;;;;;;;15.47;69.02;101272.47;4987576;28;20050;-71
2023/05/05 02:32:31;;;;;;;14.13;10.68;;;;;;;15.38;68.83;101273.75;4988922;28;20046;-71
2023/05/05 02:35:25;;;;;;;15.60;11.25;;;;;;;15.29;68.56;101282.13;4986782;28;20047;-72
2023/05/05 02:38:01;;;;;;;13.05;10.50;;;;;;;15.21;69.54;101285.09;4987443;28;20553;-72
2023/05/05 02:40:36;;;;;;;14.15;11.05;;;;;;;15.14;69.68;101284.47;4986589;28;20074;-72
2023/05/05 02:43:09;;;;;;;14.30;11.63;;;;;;;15.13;70.79;101295.19;4987132;28;20042;-72
2023/05/05 02:45:37;;;;;;;13.35;10.95;;;;;;;15.05;70.80;101301.69;4986728;28;20566;-72
2023/05/05 02:48:05;;;;;;;15.77;11.20;;;;;;;15.02;70.84;101300.94;4988741;28;20562;-72
2023/05/05 02:50:37;;;;;;;14.85;11.13;;;;;;;15.00;71.81;101294.84;4986390;28;20039;-72
2023/05/05 02:53:25;;;;;;;18.73;10.55;;;;;;;14.94;71.32;101308.34;4956222;28;20101;-72
2023/05/05 02:56:00;;;;;;;14.07;10.80;;;;;;;14.88;71.17;101306.81;4968569;28;20045;-71
2023/05/05 02:58:51;;;;;;;14.80;10.90;;;;;;;14.81;71.04;101303.53;4967137;28;20054;-71
2023/05/05 03:01:56;;;;;;;16.45;11.10;;;;;;;14.76;71.03;101300.22;4967657;28;20083;-72
2023/05/05 03:04:47;;;;;;;15.45;11.00;;;;;;;14.69;70.69;101310.22;4967448;28;20039;-72
2023/05/05 03:07:36;;;;;;;12.93;10.77;;;;;;;14.60;70.49;101306.09;4967363;28;20031;-72
2023/05/05 03:10:10;;;;;;;12.15;10.70;;;;;;;14.52;70.39;101313.50;4974272;28;20499;-71
2023/05/05 03:12:52;;;;;;;14.07;10.30;;;;;;;14.45;70.47;101314.69;4987128;28;20046;-72
2023/05/05 03:15:43;;;;;;;16.70;11.30;;;;;;;14.36;70.49;101315.03;4985855;28;20103;-72
2023/05/05 03:18:14;;;;;;;14.75;10.48;;;;;;;14.28;70.76;101317.97;4987206;28;20101;-72
2023/05/05 03:20:45;;;;;;;14.77;10.65;;;;;;;14.25;71.00;101320.72;4986366;28;20125;-72
2023/05/05 03:23:17;;;;;;;13.38;10.32;;;;;;;14.18;71.03;101313.94;4974746;28;20051;-72
2023/05/05 03:25:47;;;;;;;15.48;11.40;;;;;;;14.12;71.26;101321.22;4966749;28;20046;-71
2023/05/05 03:28:26;;;;;;;17.27;11.18;;;;;;;14.08;71.51;101330.19;4967045;28;20130;-72
2023/05/05 03:30:56;;;;;;;14.88;11.02;;;;;;;14.05;71.95;101330.31;4967201;28;20102;-71
2023/05/05 03:33:24;;;;;;;15.27;11.50;;;;;;;14.01;71.54;101325.19;4966724;28;20091;-72
2023/05/05 03:35:51;;;;;;;12.45;10.57;;;;;;;13.95;71.78;101329.78;4966443;28;20061;-71
2023/05/05 03:38:18;;;;;;;16.73;12.05;;;;;;;13.92;72.78;101329.91;4968285;28;20066;-71
2023/05/05 03:40:45;;;;;;;15.48;11.45;;;;;;;13.93;72.94;101328.97;4967369;28;20094;-71
2023/05/05 03:43:16;;;;;;;16.50;11.85;;;;;;;13.90;73.17;101334.38;4965654;28;20051;-71
2023/05/05 03:45:43;;;;;;;17.00;12.30;;;;;;;13.88;73.03;101327.41;4967216;28;20055;-71
2023/05/05 03:48:11;;;;;;;17.55;11.77;;;;;;;13.86;72.50;101330.13;4967359;28;20035;-71
2023/05/05 03:50:39;;;;;;;17.33;11.38;;;;;;;13.84;72.89;101333.78;4966383;28;20073;-71
2023/05/05 03:53:07;;;;;;;15.07;11.20;;;;;;;13.81;72.80;101342.66;4950703;28;20126;-71
2023/05/05 03:55:34;;;;;;;14.45;10.98;;;;;;;13.78;72.78;101345.44;4966641;28;20135;-71
2023/05/05 03:58:01;;;;;;;20.92;11.57;;;;;;;13.76;73.39;101355.22;4949685;28;20070;-71
2023/05/05 04:00:28;;;;;;;17.48;11.27;;;;;;;13.75;73.31;101353.50;4966285;28;20118;-71
2023/05/05 04:02:55;;;;;;;13.65;11.30;;;;;;;13.75;73.05;101353.50;4966870;28;20036;-71
2023/05/05 04:05:25;;;;;;;17.80;11.32;;;;;;;13.75;73.09;101364.94;4964476;28;20878;-71
2023/05/05 04:07:52;;;;;;;16.92;10.68;;;;;;;13.73;73.08;101369.47;4966395;28;20058;-71
2023/05/05 04:10:20;;;;;;;29.13;11.40;;;;;;;13.72;73.44;101364.19;4966283;28;20044;-71
2023/05/05 04:12:47;;;;;;;17.27;10.85;;;;;;;13.72;73.08;101354.47;4965336;28;20031;-71
2023/05/05 04:15:14;;;;;;;16.27;10.32;;;;;;;13.72;73.64;101365.06;4966087;28;20043;-72
2023/05/05 04:17:42;;;;;;;24.15;11.38;;;;;;;13.68;73.82;101363.44;4966284;28;20039;-72
2023/05/05 04:20:10;;;;;;;21.02;10.63;;;;;;;13.65;73.61;101369.72;4965800;28;20048;-71
2023/05/05 04:22:37;;;;;;;17.80;10.68;;;;;;;13.62;73.40;101369.81;4979289;28;20039;-72
2023/05/05 04:25:05;;;;;;;13.70;9.90;;;;;;;13.66;73.57;101374.09;4986931;28;20491;-71
2023/05/05 04:27:32;;;;;;;14.13;9.43;;;;;;;13.68;73.82;101384.63;4984737;28;20074;-71
2023/05/05 04:29:59;;;;;;;16.02;9.75;;;;;;;13.71;73.89;101383.66;4983058;28;20043;-71
2023/05/05 04:32:27;;;;;;;23.42;9.68;;;;;;;13.72;73.98;101380.97;4966361;28;20515;-71
2023/05/05 04:34:54;;;;;;;18.40;10.02;;;;;;;13.76;73.62;101376.44;4966587;28;20035;-71
2023/05/05 04:37:22;;;;;;;17.50;10.07;;;;;;;13.80;73.40;101386.88;4966190;28;20460;-71
2023/05/05 04:39:49;;;;;;;15.23;9.80;;;;;;;13.88;73.16;101394.56;4965694;28;20059;-71
2023/05/05 04:42:19;;;;;;;17.10;8.38;;;;;;;14.01;72.85;101394.09;4966838;28;20047;-71
2023/05/05 04:44:46;;;;;;;11.02;7.70;;;;;;;14.20;72.73;101395.16;4966170;28;20134;-71
2023/05/05 04:47:13;;;;;;;23.75;8.35;;;;;;;14.37;72.42;101394.53;4965948;28;20562;-71
2023/05/05 04:49:41;;;;;;;10.60;7.03;;;;;;;14.65;71.60;101400.59;4965817;28;20051;-71
2023/05/05 04:52:10;;;;;;;9.18;6.18;;;;;;;15.06;70.46;101400.78;4965711;28;20069;-71
2023/05/05 04:54:37;;;;;;;13.45;7.00;;;;;;;15.57;69.30;101395.16;4967377;28;20506;-71
2023/05/05 04:57:05;;;;;;;10.20;6.18;;;;;;;16.27;67.66;101401.00;4964833;28;20039;-72
2023/05/05 04:59:32;;;;;;;19.35;7.10;;;;;;;17.01;65.18;101391.38;4965420;28;20106;-71
2023/05/05 05:01:59;;;;;;;13.90;6.63;;;;;;;17.03;64.65;101400.16;4967312;28;20051;-71
2023/05/05 05:04:26;;;;;;;20.40;7.22;;;;;;;16.85;64.98;101399.22;4965935;28;20091;-72
2023/05/05 05:06:53;;;;;;;31.00;8.13;;;;;;;16.86;64.56;101399.16;4966115;28;20036;-71
2023/05/05 05:09:24;;;;;;;8.85;6.07;;;;;;;16.65;64.61;101398.34;4966975;28;20130;-71
2023/05/05 05:11:52;;;;;;;10.40;5.97;;;;;;;16.59;64.84;101399.50;4965153;28;20044;-71
2023/05/05 05:14:20;;;;;;;10.95;6.32;;;;;;;16.60;64.70;101403.03;4964884;28;20098;-71
2023/05/05 05:16:50;;;;;;;8.13;6.05;;;;;;;16.68;65.00;101402.69;4950942;28;20232;-72
2023/05/05 05:19:20;;;;;;;15.85;6.53;;;;;;;16.83;64.39;101395.78;4969028;28;20472;-72
2023/05/05 05:21:47;;;;;;;13.57;6.80;;;;;;;17.05;63.82;101398.28;4968692;28;20094;-71
2023/05/05 05:24:15;;;;;;;34.70;7.68;;;;;;;17.40;63.53;101406.31;4969373;28;20590;-71
2023/05/05 05:26:42;;;;;;;25.73;7.72;;;;;;;18.20;61.65;101411.19;4985185;28;20078;-71
2023/05/05 05:29:10;;;;;;;25.17;7.00;;;;;;;18.61;60.39;101413.41;4967904;28;20151;-71
2023/05/05 05:31:38;;;;;;;18.05;6.20;;;;;;;18.93;59.33;101408.09;4985106;28;20102;-71
2023/05/05 05:34:06;;;;;;;18.10;6.57;;;;;;;19.17;58.24;101407.66;4969098;28;20535;-72
2023/05/05 05:36:33;;;;;;;20.80;7.03;;;;;;;19.36;57.56;101413.66;4952351;28;20043;-72
2023/05/05 05:39:01;;;;;;;22.88;6.57;;;;;;;19.81;56.25;101408.31;4968766;28;20035;-72
2023/05/05 05:41:28;;;;;;;22.50;6.85;;;;;;;20.01;55.70;101400.94;4963171;28;20058;-72
2023/05/05 05:43:56;;;;;;;21.05;6.80;;;;;;;20.07;55.54;101394.34;4968066;28;20082;-71
2023/05/05 05:46:23;;;;;;;23.55;6.30;;;;;;;20.56;54.60;101385.03;4952801;28;20102;-72
2023/05/05 05:48:50;;;;;;;26.45;7.50;;;;;;;20.74;53.70;101389.25;4969638;28;20480;-72
2023/05/05 05:51:17;;;;;;;39.40;8.32;;;;;;;20.59;53.10;101393.75;4968987;28;20050;-72
2023/05/05 05:53:46;;;;;;;14.52;6.82;;;;;;;19.86;54.35;101408.94;4968055;28;20203;-72
2023/05/05 05:56:13;;;;;;;17.23;6.93;;;;;;;19.13;55.75;101409.63;4969868;28;20044;-71
2023/05/05 05:58:41;;;;;;;24.38;7.60;;;;;;;18.55;57.04;101422.63;4967418;28;20063;-72
2023/05/05 06:01:09;;;;;;;16.98;7.32;;;;;;;18.11;58.91;101424.06;4968067;28;20035;-71
2023/05/05 06:03:36;;;;;;;22.88;7.13;;;;;;;17.77;59.62;101422.25;4968161;28;20040;-71
2023/05/05 06:06:03;;;;;;;18.20;7.57;;;;;;;17.49;59.74;101416.56;4968255;28;20136;-72
2023/05/05 06:08:30;;;;;;;22.45;7.78;;;;;;;17.29;60.26;101425.53;4970200;28;20496;-71
2023/05/05 06:10:59;;;;;;;17.02;7.90;;;;;;;17.19;61.19;101430.47;4969445;28;20047;-72
2023/05/05 06:13:26;;;;;;;20.08;8.05;;;;;;;17.07;61.77;101428.38;4967352;28;20035;-71
2023/05/05 06:15:53;;;;;;;14.35;8.50;;;;;;;17.02;61.82;101420.63;4969374;28;20166;-72
2023/05/05 06:18:20;;;;;;;13.18;8.20;;;;;;;16.98;62.67;101424.34;4968218;28;20043;-72
2023/05/05 06:20:49;;;;;;;19.88;8.52;;;;;;;16.97;62.74;101427.94;4968034;28;20141;-72
2023/05/05 06:23:17;;;;;;;23.55;9.90;;;;;;;16.95;63.27;101427.16;4983702;28;20066;-71
2023/05/05 06:25:54;;;;;;;18.17;9.65;;;;;;;16.96;63.94;101439.53;4988046;28;20062;-72
2023/05/05 06:28:21;;;;;;;12.40;9.10;;;;;;;17.00;63.54;101448.25;4986584;28;20047;-71
2023/05/05 06:30:48;;;;;;;20.95;10.15;;;;;;;16.97;64.04;101446.59;4987105;28;20051;-72
2023/05/05 06:33:15;;;;;;;16.48;9.88;;;;;;;17.00;63.85;101450.91;4988564;28;21489;-71
2023/05/05 06:35:42;;;;;;;25.90;10.18;;;;;;;17.03;63.90;101448.97;4988544;28;20039;-71
2023/05/05 06:38:09;;;;;;;26.35;10.98;;;;;;;17.12;63.63;101446.81;4986655;28;20054;-71
2023/05/05 06:40:36;;;;;;;15.00;9.88;;;;;;;17.22;63.24;101448.09;4987147;28;20049;-72
2023/05/05 06:43:04;;;;;;;22.00;10.80;;;;;;;17.27;63.52;101454.03;4988200;28;20527;-71
2023/05/05 06:45:35;;;;;;;16.13;10.10;;;;;;;17.34;63.68;101449.28;4987080;28;20045;-72
2023/05/05 06:48:02;;;;;;;16.98;10.65;;;;;;;17.44;63.64;101457.69;4986863;28;20070;-71
2023/05/05 06:50:29;;;;;;;26.23;11.70;;;;;;;17.57;63.94;101460.59;4987049;28;20102;-71
2023/05/05 06:52:56;;;;;;;23.15;10.60;;;;;;;17.68;63.31;101464.44;4969192;28;20051;-71
2023/05/05 06:55:24;;;;;;;25.65;11.38;;;;;;;17.80;63.19;101460.31;4968268;28;20482;-71
2023/05/05 06:57:51;;;;;;;13.85;10.18;;;;;;;17.92;63.02;101469.47;4950741;28;20474;-71
2023/05/05 07:00:18;;;;;;;15.48;11.20;;;;;;;18.05;63.02;101467.06;4967846;28;20512;-71
2023/05/05 07:02:46;;;;;;;17.77;11.18;;;;;;;18.12;62.73;101470.28;4968743;28;20475;-71
2023/05/05 07:05:13;;;;;;;16.98;11.25;;;;;;;18.22;62.59;101473.31;4968612;28;20121;-71
2023/05/05 07:07:56;;;;;;;23.30;11.50;;;;;;;18.33;62.60;101476.28;4968708;28;20650;-72
2023/05/05 07:10:24;;;;;;;19.63;11.00;;;;;;;18.44;62.21;101475.72;4968199;28;20054;-71
2023/05/05 07:12:53;;;;;;;14.52;10.77;;;;;;;18.57;61.71;101483.94;4968187;28;20538;-71
2023/05/05 07:15:21;;;;;;;17.23;10.98;;;;;;;18.59;61.96;101485.56;4968635;28;20044;-71
2023/05/05 07:17:56;;;;;;;17.63;10.93;;;;;;;18.58;62.04;101485.66;4968933;28;20043;-71
2023/05/05 07:20:23;;;;;;;21.25;10.65;;;;;;;18.57;61.82;101487.47;4966886;28;20524;-71
2023/05/05 07:22:50;;;;;;;15.77;11.10;;;;;;;18.62;61.90;101484.53;4971860;28;20039;-72
2023/05/05 07:25:17;;;;;;;19.45;10.57;;;;;;;18.65;62.22;101484.38;4968686;28;20044;-72
2023/05/05 07:27:44;;;;;;;19.60;10.95;;;;;;;18.66;62.20;101482.59;4967441;28;20035;-71
2023/05/05 07:30:12;;;;;;;13.35;10.65;;;;;;;18.71;62.18;101489.41;4966110;28;20515;-72
2023/05/05 07:32:44;;;;;;;16.42;10.27;;;;;;;18.74;61.07;101488.38;4966785;28;20055;-72
2023/05/05 07:35:12;;;;;;;15.27;10.68;;;;;;;18.76;61.49;101487.34;4951041;28;20102;-71
2023/05/05 07:37:39;;;;;;;14.82;10.23;;;;;;;18.75;61.38;101488.28;4966885;28;20511;-71
2023/05/05 07:40:07;;;;;;;19.13;10.43;;;;;;;18.80;61.32;101493.38;4968730;28;20047;-71
2023/05/05 07:42:35;;;;;;;17.27;10.90;;;;;;;18.89;61.34;101487.50;4967858;28;20046;-71
2023/05/05 07:45:03;;;;;;;14.13;10.13;;;;;;;19.00;61.09;101494.97;4967279;28;20323;-72
2023/05/05 07:47:30;;;;;;;12.65;10.07;;;;;;;19.08;60.98;101499.88;4967229;28;20051;-71
2023/05/05 07:50:00;;;;;;;18.80;10.55;;;;;;;19.19;60.78;101505.47;4967823;28;20146;-71
2023/05/05 07:52:27;;;;;;;18.42;10.63;;;;;;;19.29;60.52;101499.63;4968003;28;20043;-71
2023/05/05 07:55:14;;;;;;;18.48;9.23;;;;;;;19.40;60.19;101491.84;4968106;28;20045;-71
2023/05/05 07:57:41;;;;;;;29.98;10.30;;;;;;;19.45;59.36;101499.59;4967692;28;20043;-71
2023/05/05 08:00:09;;;;;;;11.80;8.07;;;;;;;19.47;58.32;101495.91;4967230;28;20050;-71
2023/05/05 08:02:40;;;;;;;12.15;7.75;;;;;;;19.43;57.91;101489.00;4967551;28;20126;-71
2023/05/05 08:05:07;;;;;;;17.42;8.77;;;;;;;19.48;58.41;101486.06;4966447;28;20818;-71
2023/05/05 08:07:39;;;;;;;11.40;8.18;;;;;;;19.57;58.78;101495.38;4966560;28;20174;-71
2023/05/05 08:10:10;;;;;;;14.50;9.13;;;;;;;19.66;58.01;101498.38;4967765;28;20039;-71
2023/05/05 08:12:37;;;;;;;27.88;9.43;;;;;;;19.78;57.84;101482.56;4967712;28;20059;-71
2023/05/05 08:15:05;;;;;;;16.38;9.40;;;;;;;19.84;57.43;101496.44;4965999;28;20272;-71
2023/05/05 08:17:54;;;;;;;14.90;8.85;;;;;;;19.93;57.57;101497.75;4967831;28;20065;-72
2023/05/05 08:20:26;;;;;;;14.98;8.38;;;;;;;20.01;57.65;101489.22;4968082;28;20047;-71
2023/05/05 08:22:53;;;;;;;13.18;8.68;;;;;;;20.14;55.99;101482.19;4986547;28;20046;-71
2023/05/05 08:25:20;;;;;;;15.50;8.05;;;;;;;20.21;56.39;101476.44;4987218;28;20050;-71
2023/05/05 08:27:47;;;;;;;20.00;8.32;;;;;;;20.26;56.09;101480.56;4986464;28;20035;-72
2023/05/05 08:30:16;;;;;;;11.30;7.55;;;;;;;20.37;55.68;101482.59;4981024;28;20039;-71
2023/05/05 08:32:43;;;;;;;13.18;7.53;;;;;;;20.46;55.41;101475.81;4987155;28;20046;-72
2023/05/05 08:35:10;;;;;;;15.60;7.53;;;;;;;20.62;54.81;101478.38;4986935;28;20067;-72
2023/05/05 08:37:38;;;;;;;10.60;6.78;;;;;;;20.83;53.80;101475.34;4986961;28;20467;-71
2023/05/05 08:40:06;;;;;;;9.02;6.13;;;;;;;20.89;53.30;101475.81;4983676;28;20982;-72
2023/05/05 08:42:34;;;;;;;10.25;6.85;;;;;;;20.90;52.92;101477.53;4966174;28;20063;-72
2023/05/05 08:45:09;;;;;;;9.32;6.65;;;;;;;20.90;52.52;101477.53;4965320;28;21050;-72
2023/05/05 08:47:37;;;;;;;9.68;6.50;;;;;;;20.89;52.64;101472.28;4977598;28;20099;-71
2023/05/05 08:50:09;;;;;;;12.15;6.82;;;;;;;20.69;52.83;101469.03;4966185;28;20247;-71
2023/05/05 08:52:42;;;;;;;15.45;6.82;;;;;;;20.67;53.29;101470.94;4967598;28;20455;-71
2023/05/05 08:55:23;;;;;;;14.30;7.20;;;;;;;21.00;52.98;101472.47;4969855;28;20040;-72
2023/05/05 08:57:55;;;;;;;14.73;7.50;;;;;;;21.19;52.96;101474.78;4967866;28;20078;-72
2023/05/05 09:00:25;;;;;;;14.98;7.30;;;;;;;21.31;53.37;101482.97;4969448;28;20542;-72
2023/05/05 09:02:56;;;;;;;27.98;8.18;;;;;;;21.51;53.05;101492.41;4968545;28;20204;-72
2023/05/05 09:05:24;;;;;;;10.50;6.85;;;;;;;21.75;51.89;101489.06;4969724;28;20043;-72
2023/05/05 09:07:52;;;;;;;14.30;7.82;;;;;;;21.94;51.67;101488.69;4970051;28;20498;-72
2023/05/05 09:10:19;;;;;;;15.52;6.47;;;;;;;22.13;51.37;101489.13;4970647;28;20140;-72
2023/05/05 09:12:49;;;;;;;10.05;6.15;;;;;;;22.38;50.57;101487.44;4970285;28;20436;-72
2023/05/05 09:15:16;;;;;;;7.38;5.40;;;;;;;22.60;50.07;101493.97;4951561;28;20232;-72
2023/05/05 09:17:43;;;;;;;8.00;5.10;;;;;;;22.69;49.12;101490.63;4968712;28;20039;-72
2023/05/05 09:20:13;;;;;;;11.07;5.32;;;;;;;22.79;48.47;101501.59;4969296;28;20051;-72
2023/05/05 09:22:43;;;;;;;5.70;4.70;;;;;;;22.86;48.34;101488.56;4969399;28;20099;-72
2023/05/05 09:25:13;;;;;;;9.50;4.97;;;;;;;22.92;47.55;101497.06;4969329;28;20039;-72
2023/05/05 09:27:42;;;;;;;9.23;5.20;;;;;;;22.95;47.87;101502.19;4969754;28;20039;-72
2023/05/05 09:30:13;;;;;;;6.75;4.43;;;;;;;22.96;47.94;101497.69;4968866;28;20079;-72
2023/05/05 09:32:48;;;;;;;7.20;4.32;;;;;;;23.02;46.45;101501.75;4968294;28;20035;-72
2023/05/05 09:35:17;;;;;;;12.57;4.90;;;;;;;23.04;47.06;101494.44;4969690;28;20411;-72
2023/05/05 09:37:45;;;;;;;7.57;4.15;;;;;;;23.03;47.06;101493.56;4969588;28;20043;-72
2023/05/05 09:40:16;;;;;;;16.60;4.18;;;;;;;23.12;47.57;101492.06;4967058;28;20626;-72
2023/05/05 09:42:46;;;;;;;17.48;4.30;;;;;;;23.22;46.72;101493.13;4967884;28;20047;-71
2023/05/05 09:45:16;;;;;;;9.10;4.25;;;;;;;23.26;46.28;101494.59;4968319;28;20058;-71
2023/05/05 09:47:47;;;;;;;10.75;4.00;;;;;;;23.30;46.63;101489.84;4969811;28;20534;-71
2023/05/05 09:50:19;;;;;;;6.85;4.13;;;;;;;23.31;47.22;101488.88;4969370;28;20580;-71
2023/05/05 09:52:57;;;;;;;7.15;3.95;;;;;;;23.27;46.93;101487.41;4968104;28;20134;-71
2023/05/05 09:55:24;;;;;;;8.75;4.07;;;;;;;23.20;47.61;101478.06;4969772;28;20038;-71
2023/05/05 09:57:51;;;;;;;8.43;4.60;;;;;;;23.11;47.28;101477.72;4967847;28;20052;-71
2023/05/05 10:00:20;;;;;;;29.70;6.18;;;;;;;23.04;47.86;101476.47;4969314;28;20856;-71
2023/05/05 10:02:47;;;;;;;13.43;5.22;;;;;;;22.98;47.79;101476.94;4967785;28;20086;-71
2023/05/05 10:05:17;;;;;;;12.07;5.07;;;;;;;22.92;48.15;101486.31;4968833;28;20048;-71
2023/05/05 10:07:46;;;;;;;24.70;5.82;;;;;;;22.90;48.80;101480.19;4955894;28;20498;-71
2023/05/05 10:10:17;;;;;;;11.10;4.05;;;;;;;22.91;48.04;101478.34;4969325;28;20036;-71
2023/05/05 10:12:46;;;;;;;16.98;4.47;;;;;;;22.87;47.97;101466.94;4969568;28;20039;-72
2023/05/05 10:15:15;;;;;;;30.08;6.70;;;;;;;22.80;47.92;101474.59;4969294;28;20058;-71
2023/05/05 10:17:47;;;;;;;8.13;3.92;;;;;;;22.66;47.17;101474.75;4969968;28;20551;-71
2023/05/05 10:20:18;;;;;;;9.88;4.13;;;;;;;22.47;47.96;101468.00;4968369;28;20047;-71
2023/05/05 10:22:51;;;;;;;11.02;4.22;;;;;;;22.39;48.13;101466.78;4968014;28;20047;-72
2023/05/05 10:25:41;;;;;;;13.48;4.07;;;;;;;22.34;48.01;101469.81;4969274;28;20043;-71
2023/05/05 10:28:18;;;;;;;8.40;3.38;;;;;;;22.28;48.56;101470.25;4969687;28;20051;-71
2023/05/05 10:30:51;;;;;;;17.50;4.57;;;;;;;22.26;48.30;101470.34;4967782;28;20047;-70
2023/05/05 10:33:37;;;;;;;21.60;4.78;;;;;;;22.25;48.22;101457.88;4969393;28;20047;-71
2023/05/05 10:36:06;;;;;;;13.23;4.30;;;;;;;22.31;48.76;101456.56;4968280;28;20596;-71
2023/05/05 10:38:36;;;;;;;8.75;3.78;;;;;;;22.40;47.81;101444.34;4983298;28;20755;-71
2023/05/05 10:41:03;;;;;;;9.32;4.05;;;;;;;22.52;48.01;101446.19;4988905;28;20038;-70
2023/05/05 10:43:30;;;;;;;12.50;2.95;;;;;;;22.64;47.17;101444.44;4989520;28;20590;-72
2023/05/05 10:45:59;;;;;;;7.90;2.22;;;;;;;22.73;46.32;101448.28;4979298;28;20054;-71
2023/05/05 10:48:46;;;;;;;6.72;2.40;;;;;;;22.85;46.57;101441.16;4969330;28;20035;-71
2023/05/05 10:51:40;;;;;;;9.43;2.53;;;;;;;22.92;46.01;101442.41;4968781;28;20605;-71
2023/05/05 10:54:51;;;;;;;11.77;3.22;;;;;;;22.89;45.94;101440.81;4967498;28;20043;-71
2023/05/05 10:57:25;;;;;;;37.08;5.57;;;;;;;22.85;45.36;101436.63;4969199;28;20066;-70
2023/05/05 10:59:52;;;;;;;8.18;2.58;;;;;;;22.73;45.89;101442.94;4967452;28;20583;-71
2023/05/05 11:02:25;;;;;;;11.25;3.13;;;;;;;22.67;46.04;101430.78;4967430;28;20062;-71
2023/05/05 11:05:08;;;;;;;7.13;2.85;;;;;;;22.59;46.51;101428.66;4968726;28;20196;-72
2023/05/05 11:07:36;;;;;;;8.75;3.22;;;;;;;22.46;47.14;101423.31;4975957;28;20049;-71
2023/05/05 11:10:06;;;;;;;12.63;3.45;;;;;;;22.23;47.50;101424.88;4976433;28;20571;-70
2023/05/05 11:13:01;;;;;;;12.52;3.40;;;;;;;21.83;49.62;101427.66;4968753;28;20114;-71
2023/05/05 11:15:36;;;;;;;11.10;3.47;;;;;;;21.36;51.09;101424.56;4966629;28;20127;-71
2023/05/05 11:18:05;;;;;;;10.32;4.40;;;;;;;20.97;52.46;101431.56;4968018;28;20043;-71
2023/05/05 11:20:33;;;;;;;10.05;4.15;;;;;;;20.53;54.13;101447.72;4967382;28;20046;-71
2023/05/05 11:23:03;;;;;;;7.57;4.13;;;;;;;20.19;56.91;101448.94;4967408;28;20054;-71
2023/05/05 11:25:40;;;;;;;13.10;4.20;;;;;;;19.84;58.95;101461.66;4968460;28;20191;-71
2023/05/05 11:28:15;;;;;;;10.75;4.63;;;;;;;19.49;61.12;101459.22;4968014;28;20122;-73
2023/05/05 11:30:54;;;;;;;;;;;;;;;19.09;63.02;101457.06;4967996;28;20046;-72
2023/05/05 11:33:28;;;;;;;10.23;4.07;;;;;;;18.69;64.99;101453.91;4968066;28;20423;-73
2023/05/05 11:36:18;;;;;;;12.15;4.95;;;;;;;18.34;66.69;101455.81;4968228;28;20042;-73